Time;durP1;ratioP1;P1;durP2;ratioP2;P2;SDS_P1;SDS_P2;PMS_P1;PMS_P2;Temp;Humidity;BMP_temperature;BMP_pressure;BME280_temperature;BME280_humidity;BME280_pressure;Samples;Min_cycle;Max_cycle;Signal;HPM_P1;HPM_P2
2023/01/07 00:01:22;;;;;;;50.78;28.38;;;9.10;99.90;;;;;;5055055;28;20093;-49
2023/01/07 00:03:49;;;;;;;49.70;29.25;;;8.80;99.90;;;;;;5055167;28;20044;-51
2023/01/07 00:06:17;;;;;;;52.03;28.27;;;9.70;99.90;;;;;;5056333;28;20048;-50
2023/01/07 00:08:44;;;;;;;53.38;29.70;;;9.00;99.90;;;;;;5053897;28;20048;-51
2023/01/07 00:11:15;;;;;;;51.42;27.73;;;9.10;99.90;;;;;;5053525;28;20131;-50
2023/01/07 00:13:41;;;;;;;52.97;29.40;;;9.10;99.90;;;;;;5052958;28;20086;-51
2023/01/07 00:16:12;;;;;;;57.20;29.92;;;9.10;99.90;;;;;;5053317;28;20033;-50
2023/01/07 00:18:38;;;;;;;48.55;26.98;;;9.20;99.90;;;;;;5052611;28;20512;-51
2023/01/07 00:21:07;;;;;;;49.95;29.33;;;9.20;99.90;;;;;;5053409;28;20783;-50
2023/01/07 00:23:34;;;;;;;47.05;27.70;;;9.30;99.90;;;;;;5053147;28;20040;-51
2023/01/07 00:26:03;;;;;;;50.97;28.13;;;9.20;99.90;;;;;;5054582;28;20056;-53
2023/01/07 00:28:29;;;;;;;49.35;27.75;;;9.40;99.90;;;;;;5053474;28;20235;-51
2023/01/07 00:31:03;;;;;;;44.00;25.50;;;9.30;99.90;;;;;;5052921;28;20642;-49
2023/01/07 00:33:28;;;;;;;50.97;28.65;;;9.50;99.90;;;;;;5053522;28;20040;-47
2023/01/07 00:36:01;;;;;;;41.00;24.05;;;9.40;99.90;;;;;;5052108;28;20047;-49
2023/01/07 00:38:27;;;;;;;48.30;27.05;;;9.40;99.90;;;;;;5052328;28;20501;-46
2023/01/07 00:40:52;;;;;;;45.58;24.95;;;9.60;99.90;;;;;;5052338;28;20032;-52
2023/01/07 00:43:18;;;;;;;46.53;25.13;;;9.50;99.90;;;;;;5052778;28;20075;-50
2023/01/07 00:45:44;;;;;;;43.53;24.40;;;9.60;99.90;;;;;;5053499;28;20048;-50
2023/01/07 00:48:10;;;;;;;41.15;24.00;;;9.60;99.90;;;;;;5052498;28;20063;-52
2023/01/07 00:50:37;;;;;;;43.20;24.33;;;9.50;99.90;;;;;;5051157;28;20596;-51
2023/01/07 00:53:03;;;;;;;41.03;24.23;;;9.60;99.90;;;;;;5052300;28;20631;-50
2023/01/07 00:55:29;;;;;;;41.47;22.75;;;9.70;99.90;;;;;;5054365;28;20047;-50
2023/01/07 00:57:55;;;;;;;41.03;23.38;;;9.70;99.90;;;;;;5055148;28;20639;-51
2023/01/07 01:00:22;;;;;;;46.47;24.90;;;9.70;99.90;;;;;;5053265;28;20048;-51
2023/01/07 01:02:49;;;;;;;43.78;23.23;;;9.70;99.90;;;;;;5053162;28;20389;-49
2023/01/07 01:05:15;;;;;;;37.63;22.98;;;9.60;99.90;;;;;;5053256;28;20761;-49
2023/01/07 01:07:42;;;;;;;38.72;23.75;;;9.70;99.90;;;;;;5054103;28;20335;-51
2023/01/07 01:10:10;;;;;;;39.47;22.88;;;9.70;99.90;;;;;;5052813;28;20049;-49
2023/01/07 01:12:37;;;;;;;39.10;21.98;;;9.70;99.90;;;;;;5052180;28;20079;-50
2023/01/07 01:15:05;;;;;;;37.17;22.48;;;9.80;99.90;;;;;;5053092;28;20056;-52
2023/01/07 01:17:30;;;;;;;41.95;23.92;;;10.00;99.90;;;;;;5052703;28;21335;-49
2023/01/07 01:19:56;;;;;;;40.15;24.05;;;11.30;99.90;;;;;;5052833;28;20064;-50
2023/01/07 01:22:22;;;;;;;35.10;21.85;;;9.70;99.90;;;;;;5052012;28;20048;-50
2023/01/07 01:24:49;;;;;;;43.20;24.42;;;9.70;99.90;;;;;;5051575;28;20039;-49
2023/01/07 01:27:15;;;;;;;39.92;22.63;;;9.90;99.90;;;;;;5053416;28;20048;-52
2023/01/07 01:29:40;;;;;;;39.63;22.65;;;9.80;99.90;;;;;;5052252;28;20047;-49
2023/01/07 01:32:06;;;;;;;33.30;20.98;;;10.00;99.90;;;;;;5051867;28;20040;-50
2023/01/07 01:34:32;;;;;;;32.85;21.40;;;10.00;99.90;;;;;;5052370;28;20131;-48
2023/01/07 01:36:58;;;;;;;33.88;21.60;;;10.10;99.90;;;;;;5051877;28;20102;-48
2023/01/07 01:39:23;;;;;;;34.60;22.70;;;10.00;99.90;;;;;;5052340;28;20040;-49
2023/01/07 01:41:49;;;;;;;33.72;23.08;;;10.00;99.90;;;;;;5051967;28;20045;-49
2023/01/07 01:44:36;;;;;;;33.25;20.73;;;10.00;99.90;;;;;;5050894;28;20135;-51
2023/01/07 01:47:30;;;;;;;29.95;20.98;;;10.00;99.90;;;;;;5051760;28;20103;-50
2023/01/07 01:50:19;;;;;;;28.67;20.63;;;10.00;99.90;;;;;;5047701;28;20073;-51
2023/01/07 01:52:51;;;;;;;37.22;23.15;;;10.10;99.90;;;;;;5051141;28;20068;-48
2023/01/07 01:55:20;;;;;;;33.50;23.02;;;10.20;99.90;;;;;;5051399;28;20041;-48
2023/01/07 01:57:50;;;;;;;33.53;22.90;;;10.20;99.90;;;;;;5052338;28;20045;-51
2023/01/07 02:00:16;;;;;;;30.02;22.08;;;10.00;99.90;;;;;;5050874;28;20045;-50
2023/01/07 02:02:46;;;;;;;34.72;24.77;;;10.00;99.90;;;;;;5051381;28;20098;-52
2023/01/07 02:05:12;;;;;;;29.63;22.33;;;10.10;99.90;;;;;;5051061;28;20044;-51
2023/01/07 02:07:38;;;;;;;34.38;24.75;;;10.00;99.90;;;;;;5051465;28;20814;-50
2023/01/07 02:10:18;;;;;;;32.22;22.45;;;10.40;99.90;;;;;;5052927;28;20694;-51
2023/01/07 02:13:09;;;;;;;34.05;24.10;;;10.20;99.90;;;;;;5051950;28;20121;-51
2023/01/07 02:16:13;;;;;;;32.30;24.47;;;10.10;99.90;;;;;;5052689;28;20048;-47
2023/01/07 02:18:45;;;;;;;32.55;24.60;;;10.00;99.90;;;;;;5051189;28;20083;-51
2023/01/07 02:21:23;;;;;;;31.10;23.42;;;10.20;99.90;;;;;;5056929;28;20398;-47
2023/01/07 02:24:26;;;;;;;27.13;21.00;;;10.30;99.90;;;;;;5059353;28;20040;-48
2023/01/07 02:26:57;;;;;;;29.42;23.67;;;10.10;99.90;;;;;;5059815;28;20037;-49
2023/01/07 02:30:01;;;;;;;29.23;23.87;;;10.40;99.90;;;;;;5059234;28;20040;-47
2023/01/07 02:32:48;;;;;;;26.55;22.98;;;10.20;99.90;;;;;;5049692;28;20052;-52
2023/01/07 02:35:41;;;;;;;31.40;24.33;;;10.40;99.90;;;;;;5058576;28;20280;-49
2023/01/07 02:38:23;;;;;;;27.92;21.95;;;10.30;99.90;;;;;;5057731;28;20161;-52
2023/01/07 02:41:04;;;;;;;30.27;23.95;;;10.30;99.90;;;;;;5058423;28;20127;-50
2023/01/07 02:43:45;;;;;;;29.02;22.30;;;10.10;99.90;;;;;;5057423;28;20547;-51
2023/01/07 02:46:20;;;;;;;28.88;24.10;;;10.30;99.90;;;;;;5058028;28;20070;-50
2023/01/07 02:48:46;;;;;;;26.08;21.08;;;10.10;99.90;;;;;;5057436;28;20048;-50
2023/01/07 02:51:12;;;;;;;27.50;23.27;;;10.30;99.90;;;;;;5057854;28;20656;-48
2023/01/07 02:53:42;;;;;;;28.10;22.85;;;10.20;99.90;;;;;;5058317;28;20056;-51
2023/01/07 02:56:27;;;;;;;26.90;21.83;;;10.20;99.90;;;;;;5058452;28;20098;-48
2023/01/07 02:59:13;;;;;;;25.02;22.42;;;10.20;99.90;;;;;;5058520;28;20040;-51
2023/01/07 03:02:16;;;;;;;23.23;20.35;;;10.20;99.90;;;;;;5056636;28;20127;-50
2023/01/07 03:04:53;;;;;;;26.33;23.38;;;10.20;99.90;;;;;;5057638;28;20247;-51
2023/01/07 03:07:22;;;;;;;26.25;21.88;;;10.20;99.90;;;;;;5058164;28;20089;-50
2023/01/07 03:10:22;;;;;;;26.92;24.10;;;10.00;99.90;;;;;;5057470;28;20405;-52
2023/01/07 03:12:58;;;;;;;28.77;23.10;;;10.20;99.90;;;;;;5057272;28;20036;-50
2023/01/07 03:15:43;;;;;;;24.63;22.08;;;10.20;99.90;;;;;;5057297;28;20036;-51
2023/01/07 03:18:21;;;;;;;27.25;22.75;;;10.40;99.90;;;;;;5057269;28;20115;-51
2023/01/07 03:20:51;;;;;;;28.60;24.02;;;10.10;99.90;;;;;;5057272;28;20056;-49
2023/01/07 03:23:21;;;;;;;25.27;22.60;;;10.20;99.90;;;;;;5057355;28;20045;-52
2023/01/07 03:25:50;;;;;;;27.15;24.10;;;10.40;99.90;;;;;;5057406;28;20067;-51
2023/01/07 03:28:20;;;;;;;29.75;25.38;;;10.10;99.90;;;;;;5058923;28;20055;-50
2023/01/07 03:30:48;;;;;;;25.77;23.15;;;10.30;99.90;;;;;;5058239;28;20032;-51
2023/01/07 03:33:40;;;;;;;24.67;21.70;;;10.30;99.90;;;;;;5055159;28;20041;-51
2023/01/07 03:36:09;;;;;;;24.15;21.38;;;10.20;99.90;;;;;;5056162;28;20140;-50
2023/01/07 03:38:36;;;;;;;30.98;23.83;;;10.30;99.90;;;;;;5054747;28;20067;-52
2023/01/07 03:41:02;;;;;;;29.05;23.20;;;10.20;99.90;;;;;;5055042;28;20616;-51
2023/01/07 03:43:28;;;;;;;27.23;24.42;;;10.00;99.90;;;;;;5055742;28;20136;-51
2023/01/07 03:45:56;;;;;;;25.20;22.50;;;10.30;99.90;;;;;;5055525;28;20135;-52
2023/01/07 03:48:22;;;;;;;25.02;22.30;;;10.20;99.90;;;;;;5054428;28;20465;-49
2023/01/07 03:50:47;;;;;;;24.77;21.65;;;10.20;99.90;;;;;;5054929;28;20047;-49
2023/01/07 03:53:13;;;;;;;25.85;22.10;;;10.30;99.90;;;;;;5056186;28;20268;-50
2023/01/07 03:55:39;;;;;;;23.58;20.98;;;10.20;99.90;;;;;;5055011;28;20033;-52
2023/01/07 03:58:04;;;;;;;23.30;20.35;;;10.10;99.90;;;;;;5055217;28;20037;-50
2023/01/07 04:00:31;;;;;;;22.35;20.05;;;11.60;99.90;;;;;;5086461;28;20109;-49
2023/01/07 04:02:56;;;;;;;21.67;19.35;;;10.40;99.90;;;;;;5054506;28;20060;-52
2023/01/07 04:05:22;;;;;;;21.73;19.52;;;10.40;99.90;;;;;;5053253;28;20484;-47
2023/01/07 04:07:48;;;;;;;22.40;19.98;;;10.40;99.90;;;;;;5053727;28;20045;-52
2023/01/07 04:10:14;;;;;;;23.95;21.10;;;10.30;99.90;;;;;;5053240;28;20044;-52
2023/01/07 04:12:39;;;;;;;21.05;18.85;;;10.20;99.90;;;;;;5054036;28;20135;-50
2023/01/07 04:15:05;;;;;;;21.92;19.52;;;10.10;99.90;;;;;;5053052;28;20382;-51
2023/01/07 04:17:31;;;;;;;22.63;18.95;;;11.80;99.90;;;;;;5052718;28;20041;-50
2023/01/07 04:19:57;;;;;;;20.02;17.90;;;10.20;99.90;;;;;;5054334;28;20431;-51
2023/01/07 04:22:23;;;;;;;26.40;19.25;;;10.20;99.90;;;;;;5053683;28;20056;-50
2023/01/07 04:24:48;;;;;;;23.95;20.55;;;10.20;99.90;;;;;;5053164;28;20040;-51
2023/01/07 04:27:14;;;;;;;22.13;18.55;;;10.20;99.90;;;;;;5054731;28;20053;-52
2023/01/07 04:29:40;;;;;;;24.13;20.23;;;10.20;99.90;;;;;;5053144;28;20044;-49
2023/01/07 04:32:05;;;;;;;25.25;20.55;;;10.00;99.90;;;;;;5052892;28;20044;-50
2023/01/07 04:34:31;;;;;;;25.20;21.10;;;10.30;99.90;;;;;;5052444;28;20526;-51
2023/01/07 04:36:57;;;;;;;22.42;20.02;;;10.10;99.90;;;;;;5053540;28;20052;-52
2023/01/07 04:39:23;;;;;;;25.38;21.23;;;10.20;99.90;;;;;;5053215;28;20067;-52
2023/01/07 04:41:48;;;;;;;24.58;20.42;;;10.20;99.90;;;;;;5048218;28;20101;-50
2023/01/07 04:44:16;;;;;;;24.02;20.15;;;10.10;99.90;;;;;;5050440;28;20043;-49
2023/01/07 04:46:42;;;;;;;25.80;20.65;;;10.20;99.90;;;;;;5053585;28;20405;-50
2023/01/07 04:49:08;;;;;;;26.23;19.88;;;10.10;99.90;;;;;;5053305;28;20047;-49
2023/01/07 04:51:34;;;;;;;25.27;19.83;;;10.00;99.90;;;;;;5052982;28;20028;-51
2023/01/07 04:53:59;;;;;;;23.77;19.83;;;10.20;99.90;;;;;;5052733;28;20036;-51
2023/01/07 04:56:25;;;;;;;23.83;19.33;;;10.00;99.90;;;;;;5053916;28;20044;-51
2023/01/07 04:58:51;;;;;;;23.55;18.98;;;10.10;99.90;;;;;;5055361;28;20082;-50
2023/01/07 05:01:17;;;;;;;23.00;20.27;;;10.00;99.90;;;;;;5054330;28;20416;-51
2023/01/07 05:03:43;;;;;;;23.60;19.25;;;9.90;99.90;;;;;;5053145;28;20040;-48
2023/01/07 05:06:09;;;;;;;24.50;21.25;;;10.00;99.90;;;;;;5053916;28;20098;-51
2023/01/07 05:08:34;;;;;;;26.58;19.13;;;10.00;99.90;;;;;;5054760;28;20044;-49
2023/01/07 05:11:02;;;;;;;24.73;20.10;;;10.20;99.90;;;;;;5053787;28;20048;-50
2023/01/07 05:13:30;;;;;;;24.02;19.92;;;10.10;99.90;;;;;;5052620;28;20072;-47
2023/01/07 05:15:56;;;;;;;24.67;17.35;;;10.00;99.90;;;;;;5052231;28;20036;-50
2023/01/07 05:18:22;;;;;;;26.77;20.13;;;10.10;99.90;;;;;;5053805;28;20350;-48
2023/01/07 05:20:47;;;;;;;21.55;18.35;;;10.00;99.90;;;;;;5053578;28;20052;-50
2023/01/07 05:23:13;;;;;;;25.27;18.55;;;8.90;99.90;;;;;;5052943;28;20049;-47
2023/01/07 05:25:39;;;;;;;24.33;18.00;;;10.00;99.90;;;;;;5052998;28;20044;-49
2023/01/07 05:28:04;;;;;;;20.25;17.83;;;10.00;99.90;;;;;;5054594;28;21619;-51
2023/01/07 05:30:30;;;;;;;20.20;17.05;;;10.00;99.90;;;;;;5054923;28;20516;-50
2023/01/07 05:32:56;;;;;;;21.20;16.13;;;10.00;99.90;;;;;;5051862;28;20044;-52
2023/01/07 05:35:22;;;;;;;21.77;16.65;;;9.90;99.90;;;;;;5053764;28;20113;-53
2023/01/07 05:37:47;;;;;;;20.95;17.65;;;10.00;99.90;;;;;;5051720;28;20052;-52
2023/01/07 05:40:13;;;;;;;20.63;16.77;;;9.90;99.90;;;;;;5053506;28;20033;-51
2023/01/07 05:42:39;;;;;;;18.27;14.85;;;10.00;99.90;;;;;;5051643;28;20630;-50
2023/01/07 05:45:05;;;;;;;20.90;16.00;;;9.90;99.90;;;;;;5052006;28;20041;-49
2023/01/07 05:47:31;;;;;;;25.92;16.35;;;10.20;99.90;;;;;;5051797;28;22325;-52
2023/01/07 05:49:57;;;;;;;18.42;15.60;;;11.00;99.90;;;;;;5053023;28;20409;-50
2023/01/07 05:52:22;;;;;;;21.90;14.98;;;10.10;99.90;;;;;;5051935;28;20037;-50
2023/01/07 05:54:48;;;;;;;19.05;14.00;;;10.10;99.90;;;;;;5051451;28;20638;-49
2023/01/07 05:57:14;;;;;;;19.17;13.95;;;10.00;99.90;;;;;;5053003;28;20080;-51
2023/01/07 05:59:39;;;;;;;19.00;14.95;;;10.00;99.90;;;;;;5052641;28;20097;-51
2023/01/07 06:02:05;;;;;;;18.25;14.55;;;10.00;99.90;;;;;;5052143;28;20044;-51
2023/01/07 06:04:33;;;;;;;21.42;15.93;;;10.10;99.90;;;;;;5051864;28;21374;-50
2023/01/07 06:06:59;;;;;;;19.63;14.35;;;10.20;99.90;;;;;;5052080;28;20084;-50
2023/01/07 06:09:25;;;;;;;18.30;13.70;;;9.80;99.90;;;;;;5051449;28;20040;-51
2023/01/07 06:11:51;;;;;;;14.52;12.65;;;9.80;99.90;;;;;;5052050;28;20059;-52
2023/01/07 06:14:16;;;;;;;18.67;13.82;;;10.10;99.90;;;;;;5051224;28;20821;-53
2023/01/07 06:16:42;;;;;;;20.70;14.20;;;9.90;99.90;;;;;;5051418;28;20032;-53
2023/01/07 06:19:09;;;;;;;20.00;14.60;;;10.20;99.90;;;;;;5052083;28;20045;-53
2023/01/07 06:21:34;;;;;;;15.45;12.48;;;8.60;99.90;;;;;;5052140;28;20144;-53
2023/01/07 06:24:00;;;;;;;13.65;10.73;;;9.70;99.90;;;;;;5051207;28;20053;-52
2023/01/07 06:26:26;;;;;;;18.08;12.95;;;9.70;99.90;;;;;;5050720;28;20202;-50
2023/01/07 06:28:51;;;;;;;14.75;12.02;;;9.70;99.90;;;;;;5053695;28;20045;-51
2023/01/07 06:31:17;;;;;;;17.42;12.63;;;9.90;99.90;;;;;;5052696;28;20059;-53
2023/01/07 06:33:43;;;;;;;18.48;12.70;;;9.90;99.90;;;;;;5050848;28;20041;-51
2023/01/07 06:36:09;;;;;;;17.88;13.65;;;9.80;99.90;;;;;;5052812;28;20045;-53
2023/01/07 06:38:36;;;;;;;17.20;12.45;;;9.90;99.90;;;;;;5051062;28;20067;-52
2023/01/07 06:41:01;;;;;;;20.55;12.35;;;9.80;99.90;;;;;;5052822;28;20074;-52
2023/01/07 06:43:28;;;;;;;16.88;12.10;;;9.80;99.90;;;;;;5052440;28;20052;-52
2023/01/07 06:45:53;;;;;;;18.23;11.70;;;9.70;99.90;;;;;;5052150;28;21357;-53
2023/01/07 06:48:19;;;;;;;17.75;12.02;;;9.80;99.90;;;;;;5051964;28;20587;-53
2023/01/07 06:50:45;;;;;;;16.67;10.95;;;9.70;99.90;;;;;;5050708;28;20075;-53
2023/01/07 06:53:11;;;;;;;14.30;11.00;;;10.20;99.90;;;;;;5050975;28;20041;-51
2023/01/07 06:55:37;;;;;;;15.00;10.27;;;9.70;99.90;;;;;;5050746;28;20040;-53
2023/01/07 06:58:03;;;;;;;17.85;11.82;;;9.60;99.90;;;;;;5052314;28;20051;-51
2023/01/07 07:00:29;;;;;;;18.92;11.38;;;11.10;99.90;;;;;;5050155;28;20040;-54
2023/01/07 07:02:54;;;;;;;16.60;10.20;;;9.80;99.90;;;;;;5050625;28;20147;-50
2023/01/07 07:05:20;;;;;;;15.90;11.40;;;9.90;99.90;;;;;;5050305;28;20048;-52
2023/01/07 07:07:46;;;;;;;15.38;10.88;;;9.80;99.90;;;;;;5053090;28;20075;-54
2023/01/07 07:10:12;;;;;;;16.98;11.35;;;9.70;99.90;;;;;;5054299;28;20076;-55
2023/01/07 07:12:38;;;;;;;15.32;10.60;;;9.70;99.90;;;;;;5053886;28;20040;-53
2023/01/07 07:15:05;;;;;;;16.40;11.63;;;9.60;99.90;;;;;;5054575;28;20109;-54
2023/01/07 07:17:31;;;;;;;14.57;10.02;;;9.60;99.90;;;;;;5054855;28;20049;-54
2023/01/07 07:19:57;;;;;;;18.42;10.45;;;9.70;99.90;;;;;;5054065;28;20333;-54
2023/01/07 07:22:22;;;;;;;14.40;10.63;;;9.70;99.90;;;;;;5054528;28;20051;-53
2023/01/07 07:24:48;;;;;;;13.20;10.80;;;9.70;99.90;;;;;;5054048;28;20055;-51
2023/01/07 07:27:14;;;;;;;15.93;10.55;;;9.40;99.90;;;;;;5055767;28;20032;-53
2023/01/07 07:29:40;;;;;;;15.45;10.60;;;9.50;99.90;;;;;;5055063;28;20047;-54
2023/01/07 07:32:05;;;;;;;14.38;10.90;;;9.60;99.90;;;;;;5053667;28;20041;-54
2023/01/07 07:34:31;;;;;;;15.43;10.57;;;9.60;99.90;;;;;;5053769;28;20040;-54
2023/01/07 07:36:57;;;;;;;14.25;10.32;;;9.70;99.90;;;;;;5054079;28;20032;-51
2023/01/07 07:39:22;;;;;;;12.77;9.85;;;9.50;99.90;;;;;;5054401;28;20040;-52
2023/01/07 07:41:48;;;;;;;12.40;9.70;;;9.50;99.90;;;;;;5053999;28;20033;-53
2023/01/07 07:44:14;;;;;;;12.18;9.18;;;9.30;99.90;;;;;;5054295;28;20039;-56
2023/01/07 07:46:40;;;;;;;14.13;9.13;;;9.40;99.90;;;;;;5053172;28;20060;-57
2023/01/07 07:49:05;;;;;;;15.50;10.02;;;9.50;99.90;;;;;;5053405;28;20044;-59
2023/01/07 07:51:31;;;;;;;10.90;9.23;;;9.30;99.90;;;;;;5056242;28;20040;-59
2023/01/07 07:53:57;;;;;;;13.82;8.48;;;9.30;99.90;;;;;;5055383;28;20442;-59
2023/01/07 07:56:23;;;;;;;13.45;9.23;;;9.50;99.90;;;;;;5055280;28;20796;-59
2023/01/07 07:58:49;;;;;;;11.88;7.95;;;9.30;99.90;;;;;;5055495;28;20077;-59
2023/01/07 08:01:14;;;;;;;18.80;9.13;;;9.40;99.90;;;;;;5053806;28;20052;-59
2023/01/07 08:03:40;;;;;;;13.68;8.18;;;9.30;99.90;;;;;;5055015;28;20052;-59
2023/01/07 08:06:06;;;;;;;15.15;8.15;;;9.40;99.90;;;;;;5053063;28;20040;-59
2023/01/07 08:08:32;;;;;;;14.52;7.88;;;9.30;99.90;;;;;;5053477;28;20064;-58
2023/01/07 08:10:57;;;;;;;15.52;7.50;;;9.40;99.90;;;;;;5054422;28;20052;-57
2023/01/07 08:13:24;;;;;;;14.85;7.35;;;9.40;99.90;;;;;;5053917;28;20086;-57
2023/01/07 08:15:50;;;;;;;10.45;7.00;;;9.40;99.90;;;;;;5053073;28;20851;-57
2023/01/07 08:18:17;;;;;;;13.55;7.13;;;9.30;99.90;;;;;;5052366;28;20035;-57
2023/01/07 08:20:43;;;;;;;12.38;7.38;;;9.20;99.90;;;;;;5051615;28;20079;-57
2023/01/07 08:23:09;;;;;;;11.18;6.93;;;9.30;99.90;;;;;;5053395;28;20545;-56
2023/01/07 08:25:36;;;;;;;12.18;7.05;;;9.30;99.90;;;;;;5052675;28;20527;-57
2023/01/07 08:28:02;;;;;;;11.30;6.28;;;9.40;99.90;;;;;;5053825;28;20143;-56
2023/01/07 08:30:29;;;;;;;10.18;6.50;;;9.40;99.90;;;;;;5053209;28;20048;-56
2023/01/07 08:32:56;;;;;;;12.20;7.57;;;9.30;99.90;;;;;;5053185;28;20045;-56
2023/01/07 08:35:22;;;;;;;12.32;6.55;;;9.30;99.90;;;;;;5053382;28;20037;-56
2023/01/07 08:37:48;;;;;;;11.52;6.95;;;9.30;99.90;;;;;;5052581;28;20049;-56
2023/01/07 08:40:14;;;;;;;11.25;6.68;;;9.30;99.90;;;;;;5034950;28;23186;-57
2023/01/07 08:42:40;;;;;;;12.60;7.20;;;9.50;99.90;;;;;;5052498;28;20109;-56
2023/01/07 08:45:07;;;;;;;10.65;6.38;;;9.40;99.90;;;;;;5051278;28;20108;-57
2023/01/07 08:47:33;;;;;;;10.85;6.30;;;9.80;99.90;;;;;;5049814;28;20094;-57
2023/01/07 08:49:59;;;;;;;14.13;6.30;;;9.80;99.90;;;;;;5051274;28;20695;-59
2023/01/07 08:52:25;;;;;;;9.85;5.60;;;9.60;99.90;;;;;;5053443;28;20090;-56
2023/01/07 08:54:51;;;;;;;10.20;5.18;;;10.30;99.90;;;;;;5052614;28;20126;-57
2023/01/07 08:57:18;;;;;;;7.30;4.70;;;9.80;99.90;;;;;;5053007;28;20051;-56
2023/01/07 08:59:44;;;;;;;9.07;5.10;;;9.70;99.90;;;;;;5054876;28;20102;-56
2023/01/07 09:02:14;;;;;;;8.98;5.30;;;9.90;99.90;;;;;;5054297;28;20064;-56
2023/01/07 09:04:40;;;;;;;7.82;4.82;;;9.60;99.90;;;;;;5054504;28;20071;-57
2023/01/07 09:07:05;;;;;;;7.40;4.63;;;9.90;99.90;;;;;;5054651;28;20167;-56
2023/01/07 09:09:31;;;;;;;9.07;4.57;;;9.70;99.90;;;;;;5054120;28;20032;-57
2023/01/07 09:11:57;;;;;;;9.30;4.60;;;9.80;99.90;;;;;;5051986;28;20052;-56
2023/01/07 09:14:22;;;;;;;8.65;4.43;;;10.00;99.90;;;;;;5054318;28;20044;-56
2023/01/07 09:16:48;;;;;;;7.72;4.47;;;9.90;99.90;;;;;;5053509;28;20063;-56
2023/01/07 09:19:14;;;;;;;7.43;3.80;;;10.10;99.90;;;;;;5054099;28;21195;-56
2023/01/07 09:21:40;;;;;;;6.85;4.05;;;10.30;99.90;;;;;;5053001;28;20056;-56
2023/01/07 09:24:06;;;;;;;7.55;4.38;;;10.20;99.90;;;;;;5054044;28;20045;-57
2023/01/07 09:26:31;;;;;;;7.10;4.70;;;10.20;99.90;;;;;;5052346;28;20046;-57
2023/01/07 09:28:57;;;;;;;8.23;4.35;;;10.20;99.90;;;;;;5052488;28;20516;-57
2023/01/07 09:31:23;;;;;;;7.43;3.63;;;10.10;99.90;;;;;;5051773;28;20033;-56
2023/01/07 09:33:49;;;;;;;6.75;3.88;;;10.00;99.90;;;;;;5051639;28;20070;-56
2023/01/07 09:36:14;;;;;;;6.97;3.67;;;10.00;99.90;;;;;;5051719;28;20047;-57
2023/01/07 09:38:40;;;;;;;6.50;3.90;;;9.90;99.90;;;;;;5052627;28;20696;-56
2023/01/07 09:41:47;;;;;;;8.95;3.47;;;10.10;99.90;;;;;;5051883;28;20186;-57
2023/01/07 09:44:24;;;;;;;7.93;3.63;;;9.90;99.90;;;;;;5050743;28;20052;-57
2023/01/07 09:46:54;;;;;;;6.20;3.50;;;10.10;99.90;;;;;;5051605;28;20744;-57
2023/01/07 09:49:26;;;;;;;6.60;3.60;;;10.10;99.90;;;;;;5051720;28;20127;-56
2023/01/07 09:51:57;;;;;;;5.85;3.00;;;10.00;99.90;;;;;;5050798;28;20536;-57
2023/01/07 09:54:33;;;;;;;6.63;3.30;;;10.30;99.90;;;;;;5051271;28;20139;-57
2023/01/07 09:56:59;;;;;;;7.35;3.50;;;10.10;99.90;;;;;;5050469;28;20044;-56
2023/01/07 09:59:25;;;;;;;6.63;3.50;;;9.80;99.90;;;;;;5052204;28;20133;-56
2023/01/07 10:02:31;;;;;;;8.88;3.38;;;9.80;99.90;;;;;;5050093;28;20844;-57
2023/01/07 10:05:37;;;;;;;6.70;3.47;;;9.90;99.90;;;;;;5038857;28;20056;-57
2023/01/07 10:08:36;;;;;;;7.80;3.10;;;9.90;99.90;;;;;;5052550;28;20040;-57
2023/01/07 10:11:16;;;;;;;7.68;4.85;;;9.90;99.90;;;;;;5050348;28;20055;-56
2023/01/07 10:14:19;;;;;;;10.05;3.55;;;10.20;99.90;;;;;;5036795;28;20063;-57
2023/01/07 10:17:09;;;;;;;5.78;3.40;;;10.40;99.90;;;;;;5052989;28;20529;-57
2023/01/07 10:19:56;;;;;;;10.65;3.22;;;10.70;99.90;;;;;;5052016;28;20040;-57
2023/01/07 10:22:35;;;;;;;7.25;3.20;;;10.70;99.90;;;;;;5053504;28;20419;-56
2023/01/07 10:25:12;;;;;;;7.15;3.05;;;10.30;99.90;;;;;;5052292;28;20044;-56
2023/01/07 10:27:41;;;;;;;7.70;2.60;;;10.10;99.90;;;;;;5052280;28;20032;-57
2023/01/07 10:30:17;;;;;;;5.15;2.83;;;10.20;99.90;;;;;;5053075;28;20040;-56
2023/01/07 10:32:45;;;;;;;13.25;3.47;;;10.40;99.90;;;;;;5051359;28;20559;-56
2023/01/07 10:35:19;;;;;;;5.70;2.90;;;10.20;99.90;;;;;;5052347;28;20049;-57
2023/01/07 10:37:45;;;;;;;8.52;3.17;;;10.20;99.90;;;;;;5051972;28;20097;-57
2023/01/07 10:40:37;;;;;;;5.70;2.72;;;10.30;99.90;;;;;;5052662;28;20044;-57
2023/01/07 10:43:35;;;;;;;6.45;2.55;;;10.40;99.90;;;;;;5055901;28;20067;-57
2023/01/07 10:46:31;;;;;;;3.90;2.33;;;10.20;99.90;;;;;;5055294;28;20657;-57
2023/01/07 10:49:14;;;;;;;5.28;3.03;;;10.50;99.90;;;;;;5056644;28;20144;-57
2023/01/07 10:51:45;;;;;;;6.07;2.72;;;10.20;99.90;;;;;;5054507;28;20056;-56
2023/01/07 10:54:32;;;;;;;10.32;2.85;;;10.40;99.90;;;;;;5054473;28;20052;-61
2023/01/07 10:57:05;;;;;;;7.03;2.20;;;10.30;99.90;;;;;;5054221;28;20044;-60
2023/01/07 10:59:31;;;;;;;4.80;2.45;;;10.50;99.90;;;;;;5053691;28;20049;-57
2023/01/07 11:01:58;;;;;;;7.25;2.35;;;10.40;99.90;;;;;;5054128;28;20400;-57
2023/01/07 11:04:25;;;;;;;6.03;2.42;;;10.20;99.90;;;;;;5054557;28;20773;-57
2023/01/07 11:07:20;;;;;;;4.88;2.05;;;10.30;99.90;;;;;;5054345;28;20135;-57
2023/01/07 11:09:47;;;;;;;4.00;2.40;;;10.50;99.90;;;;;;5054833;28;20114;-57
2023/01/07 11:12:21;;;;;;;3.83;1.95;;;10.50;99.90;;;;;;5054593;28;20086;-57
2023/01/07 11:14:49;;;;;;;6.55;2.10;;;10.50;99.90;;;;;;5054008;28;20123;-57
2023/01/07 11:17:36;;;;;;;5.40;2.17;;;10.60;99.90;;;;;;5053820;28;20037;-57
2023/01/07 11:20:02;;;;;;;5.82;2.40;;;10.70;99.90;;;;;;5054430;28;20044;-57
2023/01/07 11:22:32;;;;;;;9.85;2.30;;;10.90;99.90;;;;;;5053341;28;20053;-57
2023/01/07 11:24:59;;;;;;;12.77;3.20;;;10.90;99.90;;;;;;5054979;28;21333;-57
2023/01/07 11:27:28;;;;;;;6.45;2.25;;;11.00;99.90;;;;;;5054989;28;20051;-57
2023/01/07 11:30:27;;;;;;;9.18;2.20;;;11.20;99.90;;;;;;5055037;28;20059;-57
2023/01/07 11:33:05;;;;;;;3.47;1.65;;;11.20;99.90;;;;;;5052797;28;20068;-58
2023/01/07 11:35:31;;;;;;;12.13;2.22;;;11.10;99.90;;;;;;5054592;28;20460;-57
2023/01/07 11:37:58;;;;;;;9.27;2.25;;;11.10;99.90;;;;;;5053255;28;20072;-57
2023/01/07 11:40:30;;;;;;;3.70;1.80;;;11.20;99.90;;;;;;5053489;28;20033;-57
2023/01/07 11:43:19;;;;;;;8.80;2.53;;;11.30;99.90;;;;;;5051571;28;20032;-57
2023/01/07 11:45:54;;;;;;;4.60;1.75;;;11.20;99.90;;;;;;5054114;28;20044;-57
2023/01/07 11:48:48;;;;;;;5.07;1.85;;;10.90;99.90;;;;;;5054273;28;20048;-58
2023/01/07 11:51:15;;;;;;;4.10;1.67;;;11.00;99.90;;;;;;5055831;28;20037;-57
2023/01/07 11:53:44;;;;;;;4.55;1.88;;;10.80;99.90;;;;;;5053604;28;20098;-56
2023/01/07 11:56:13;;;;;;;4.65;1.40;;;10.70;99.90;;;;;;5053161;28;20122;-56
2023/01/07 11:58:45;;;;;;;3.90;1.75;;;10.90;99.90;;;;;;5052023;28;20543;-56
2023/01/07 12:01:17;;;;;;;4.13;1.83;;;10.70;99.90;;;;;;5054161;28;20505;-57
2023/01/07 12:03:52;;;;;;;;;;;10.80;99.90;;;;;;5055089;28;20044;-57
2023/01/07 12:06:32;;;;;;;7.82;2.10;;;10.70;99.90;;;;;;5055555;28;20081;-57
2023/01/07 12:09:03;;;;;;;5.90;2.00;;;10.70;99.90;;;;;;5054356;28;20040;-57
2023/01/07 12:11:32;;;;;;;4.07;1.48;;;10.60;99.90;;;;;;5053877;28;20067;-57
2023/01/07 12:14:07;;;;;;;3.08;1.55;;;10.70;99.90;;;;;;5053277;28;20090;-57
2023/01/07 12:16:34;;;;;;;3.60;1.60;;;10.70;99.90;;;;;;5052161;28;20123;-57
2023/01/07 12:19:37;;;;;;;6.80;1.67;;;10.60;99.90;;;;;;5052882;28;20077;-56
2023/01/07 12:22:17;;;;;;;3.03;1.63;;;10.60;99.90;;;;;;5054525;28;20055;-56
2023/01/07 12:25:01;;;;;;;3.70;1.42;;;10.40;99.90;;;;;;5051425;28;20059;-57
2023/01/07 12:27:32;;;;;;;4.18;1.85;;;10.70;99.90;;;;;;5052703;28;20053;-57
2023/01/07 12:30:09;;;;;;;3.95;1.75;;;10.60;99.90;;;;;;5053526;28;20044;-56
2023/01/07 12:33:03;;;;;;;4.47;1.40;;;10.80;99.90;;;;;;5052105;28;20032;-57
2023/01/07 12:35:34;;;;;;;2.92;1.13;;;10.70;99.90;;;;;;5053106;28;20048;-57
2023/01/07 12:38:24;;;;;;;2.40;1.20;;;10.70;99.90;;;;;;5053103;28;20045;-56
2023/01/07 12:41:09;;;;;;;2.25;1.30;;;10.80;99.90;;;;;;5052110;28;20049;-57
2023/01/07 12:43:43;;;;;;;3.00;1.30;;;10.90;99.90;;;;;;5053200;28;20332;-57
2023/01/07 12:46:16;;;;;;;3.38;1.45;;;10.70;99.90;;;;;;5052292;28;20051;-57
2023/01/07 12:49:03;;;;;;;;;;;10.80;99.90;;;;;;5052195;28;21028;-57
2023/01/07 12:51:34;;;;;;;3.25;1.50;;;10.90;99.90;;;;;;5053323;28;21722;-57
2023/01/07 12:54:12;;;;;;;2.85;1.30;;;10.70;99.90;;;;;;5052236;28;20049;-56
2023/01/07 12:56:55;;;;;;;3.63;1.65;;;11.00;99.90;;;;;;5051951;28;20078;-57